Time;durP1;ratioP1;P1;durP2;ratioP2;P2;SDS_P1;SDS_P2;PMS_P1;PMS_P2;Temp;Humidity;BMP_temperature;BMP_pressure;BME280_temperature;BME280_humidity;BME280_pressure;Samples;Min_cycle;Max_cycle;Signal;HPM_P1;HPM_P2
2023/12/23 00:00:29;;;;;;;2.73;2.03;;;;;;;-144.30;59.21;86434.28;5110717;28;20710;-60
2023/12/23 00:02:56;;;;;;;2.60;2.00;;;;;;;-144.30;59.13;86462.13;5111155;28;20580;-59
2023/12/23 00:05:23;;;;;;;2.10;2.00;;;;;;;-144.30;59.58;86446.22;5110805;28;20191;-60
2023/12/23 00:07:51;;;;;;;2.50;2.30;;;;;;;-144.30;59.99;86424.34;5110799;28;20194;-57
2023/12/23 00:10:18;;;;;;;4.80;2.57;;;;;;;-144.30;60.40;86402.47;5110367;28;20194;-59
2023/12/23 00:12:45;;;;;;;3.50;2.17;;;;;;;-144.30;60.40;86458.16;5110853;28;20198;-60
2023/12/23 00:15:12;;;;;;;5.23;2.27;;;;;;;-144.30;61.00;86456.16;5110459;28;20218;-55
2023/12/23 00:17:39;;;;;;;2.67;2.30;;;;;;;-144.30;60.47;86454.19;5110688;28;20201;-60
2023/12/23 00:20:07;;;;;;;6.10;2.40;;;;;;;-144.30;60.70;86472.06;5110666;28;20273;-59
2023/12/23 00:22:34;;;;;;;1.70;1.60;;;;;;;-144.30;60.37;86434.28;5110028;28;20286;-59
2023/12/23 00:25:03;;;;;;;3.73;1.87;;;;;;;-144.30;59.60;86434.28;5110394;28;20678;-56
2023/12/23 00:27:30;;;;;;;2.40;1.73;;;;;;;-144.30;60.10;86619.22;5110139;28;20289;-59
2023/12/23 00:29:57;;;;;;;3.10;2.00;;;;;;;-144.30;60.09;86424.34;5110677;28;20220;-60
2023/12/23 00:32:25;;;;;;;2.80;2.40;;;;;;;-144.30;59.97;86438.28;5110167;28;20199;-57
2023/12/23 00:34:52;;;;;;;2.90;1.80;;;;;;;-144.30;59.72;86422.38;5110314;28;20744;-61
2023/12/23 00:37:19;;;;;;;2.53;2.20;;;;;;;-144.30;59.65;86432.31;5110282;28;20245;-55
2023/12/23 00:39:46;;;;;;;1.90;1.80;;;;;;;-144.30;60.28;86460.16;5110059;28;20226;-56
2023/12/23 00:42:14;;;;;;;2.20;2.10;;;;;;;-144.30;59.71;86434.28;5109900;28;20233;-55
2023/12/23 00:44:41;;;;;;;4.60;2.70;;;;;;;-144.30;59.96;86426.34;5110355;28;20195;-55
2023/12/23 00:47:08;;;;;;;3.73;2.17;;;;;;;-144.30;59.86;86434.28;5110150;28;20271;-60
2023/12/23 00:49:35;;;;;;;3.00;2.00;;;;;;;-144.30;59.37;86432.31;5109790;28;20289;-60
2023/12/23 00:52:02;;;;;;;2.80;2.37;;;;;;;-144.30;60.09;86466.09;5110033;28;20194;-60
2023/12/23 00:54:29;;;;;;;2.50;2.03;;;;;;;-144.30;59.83;86430.31;5109993;28;20680;-55
2023/12/23 00:56:57;;;;;;;4.93;2.10;;;;;;;-144.30;59.90;86448.22;5110118;28;20699;-60
2023/12/23 00:59:25;;;;;;;2.37;1.80;;;;;;;-144.30;60.81;86448.22;5109698;28;20513;-60
2023/12/23 01:01:52;;;;;;;3.13;2.10;;;;;;;-144.30;60.60;86424.34;5110012;28;20578;-55
2023/12/23 01:04:19;;;;;;;2.57;2.37;;;;;;;-144.30;60.76;86430.31;5109772;28;20205;-56
2023/12/23 01:06:46;;;;;;;2.50;2.30;;;;;;;-144.30;61.09;86470.09;5110111;28;20210;-59
2023/12/23 01:09:13;;;;;;;3.33;2.53;;;;;;;-144.30;61.20;86480.03;5109676;28;20195;-59
2023/12/23 01:11:40;;;;;;;2.70;2.30;;;;;;;-144.30;61.47;86452.19;5109903;28;20663;-59
2023/12/23 01:14:08;;;;;;;2.50;2.30;;;;;;;-144.30;61.16;86446.22;5109929;28;20693;-60
2023/12/23 01:16:36;;;;;;;5.13;3.00;;;;;;;-144.30;61.83;86414.41;5109279;28;20318;-56
2023/12/23 01:19:03;;;;;;;3.53;2.70;;;;;;;-144.30;61.87;86472.06;5109953;28;20237;-58
2023/12/23 01:21:30;;;;;;;2.50;2.27;;;;;;;-144.30;61.83;86505.88;5110874;28;20233;-56
2023/12/23 01:23:57;;;;;;;2.87;2.43;;;;;;;-144.30;62.34;86418.38;5113987;28;20230;-59
2023/12/23 01:26:23;;;;;;;2.93;2.27;;;;;;;-144.30;62.51;86464.13;5114519;28;20216;-60
2023/12/23 01:28:50;;;;;;;2.50;2.30;;;;;;;-144.30;62.74;86484.00;5113982;28;20201;-56
2023/12/23 01:31:20;;;;;;;3.57;2.47;;;;;;;-144.30;62.91;86474.06;5113542;28;20204;-57
2023/12/23 01:33:48;;;;;;;3.50;1.97;;;;;;;-144.30;62.54;86482.03;5113753;28;20580;-57
2023/12/23 01:36:16;;;;;;;2.07;1.87;;;;;;;-144.30;62.50;86503.91;5113907;28;20229;-55
2023/12/23 01:38:43;;;;;;;2.37;2.17;;;;;;;-144.30;62.32;86464.13;5113551;28;20201;-55
2023/12/23 01:41:10;;;;;;;2.70;1.93;;;;;;;-144.30;62.15;86497.94;5113554;28;20615;-55
2023/12/23 01:43:37;;;;;;;3.17;2.23;;;;;;;-144.30;63.00;86476.06;5113517;28;20198;-55
2023/12/23 01:46:04;;;;;;;3.87;2.53;;;;;;;-144.30;62.75;86503.91;5113604;28;20531;-55
2023/12/23 01:48:36;;;;;;;3.30;2.00;;;;;;;-144.30;63.76;86493.94;5113255;28;20194;-55
2023/12/23 01:51:05;;;;;;;3.00;2.40;;;;;;;-144.30;63.48;86505.88;5113770;28;20589;-56
2023/12/23 01:53:33;;;;;;;2.30;2.07;;;;;;;-144.30;63.36;86493.94;5113164;28;20637;-60
2023/12/23 01:56:01;;;;;;;3.50;2.80;;;;;;;-144.30;63.71;86486.00;5113455;28;20198;-56
2023/12/23 01:58:28;;;;;;;2.77;2.40;;;;;;;-144.30;63.46;86460.16;5113216;28;20195;-57
2023/12/23 02:00:55;;;;;;;2.50;2.30;;;;;;;-144.30;64.19;86497.94;5113452;28;20314;-57
2023/12/23 02:03:22;;;;;;;2.23;2.00;;;;;;;-144.30;63.51;86470.09;5113142;28;20205;-56
2023/12/23 02:05:49;;;;;;;2.60;2.40;;;;;;;-144.30;63.80;86495.94;5113343;28;20194;-59
2023/12/23 02:08:18;;;;;;;2.50;2.30;;;;;;;-144.30;63.92;86482.03;5113160;28;20240;-60
2023/12/23 02:10:47;;;;;;;2.53;2.33;;;;;;;-144.30;63.97;86476.06;5112821;28;20277;-59
2023/12/23 02:13:22;;;;;;;2.83;2.17;;;;;;;-144.30;64.25;86505.88;5112694;28;20195;-59
2023/12/23 02:15:50;;;;;;;4.77;2.50;;;;;;;-144.30;63.75;86440.25;5112971;28;20233;-60
2023/12/23 02:18:17;;;;;;;2.57;2.37;;;;;;;-144.30;63.76;86480.03;5112692;28;20282;-59
2023/12/23 02:20:48;;;;;;;5.20;2.47;;;;;;;-144.30;64.13;86525.75;5112749;28;20228;-59
2023/12/23 02:23:15;;;;;;;2.50;2.30;;;;;;;-144.30;64.07;86474.06;5112320;28;20191;-57
2023/12/23 02:25:43;;;;;;;3.60;2.40;;;;;;;-144.30;64.52;86521.78;5113323;28;20206;-56
2023/12/23 02:28:12;;;;;;;2.77;2.57;;;;;;;-144.30;64.56;86517.81;5112943;28;20638;-57
2023/12/23 02:30:41;;;;;;;4.00;2.67;;;;;;;-144.30;64.16;86509.84;5112887;28;20194;-59
2023/12/23 02:33:09;;;;;;;2.70;2.50;;;;;;;-144.30;64.61;86505.88;5111194;28;20204;-56
2023/12/23 02:35:36;;;;;;;3.27;2.40;;;;;;;-144.30;64.55;86458.16;5112352;28;20203;-59
2023/12/23 02:38:04;;;;;;;3.30;2.50;;;;;;;-144.30;64.46;86501.91;5112541;28;20194;-55
2023/12/23 02:40:31;;;;;;;3.40;2.63;;;;;;;-144.30;64.21;86482.03;5112366;28;20226;-55
2023/12/23 02:42:58;;;;;;;3.03;2.80;;;;;;;-144.30;63.89;86509.84;5112487;28;20317;-59
2023/12/23 02:45:25;;;;;;;3.53;3.20;;;;;;;-144.30;64.56;86476.06;5112540;28;20302;-59
2023/12/23 02:47:52;;;;;;;3.40;2.80;;;;;;;-144.30;64.46;86513.84;5112319;28;20544;-60
2023/12/23 02:50:19;;;;;;;3.00;2.70;;;;;;;-144.30;64.40;86537.69;5112133;28;20191;-57
2023/12/23 02:52:46;;;;;;;3.30;3.00;;;;;;;-144.30;64.84;86497.94;5112102;28;20758;-59
2023/12/23 02:55:15;;;;;;;9.47;3.37;;;;;;;-144.30;64.43;86533.72;5112349;28;20588;-59
2023/12/23 02:57:42;;;;;;;3.60;3.23;;;;;;;-144.30;64.66;86509.84;5112311;28;20206;-56
2023/12/23 03:00:10;;;;;;;7.13;3.60;;;;;;;-144.30;64.73;86499.91;5112125;28;20225;-55
2023/12/23 03:02:37;;;;;;;7.47;4.47;;;;;;;-144.30;65.69;86507.88;5112004;28;20198;-56
2023/12/23 03:05:05;;;;;;;6.70;4.53;;;;;;;-144.30;65.52;86489.97;5112172;28;20198;-58
2023/12/23 03:07:31;;;;;;;8.83;4.40;;;;;;;-144.30;65.40;86470.09;5112188;27;20267;-56
2023/12/23 03:09:58;;;;;;;5.30;3.40;;;;;;;-144.30;65.01;86452.19;5111944;28;20572;-56
2023/12/23 03:12:27;;;;;;;4.30;3.30;;;;;;;-144.30;65.71;86454.19;5111659;28;20199;-59
2023/12/23 03:14:54;;;;;;;3.50;3.20;;;;;;;-144.30;64.94;86517.81;5111891;28;20201;-60
2023/12/23 03:17:20;;;;;;;3.07;2.77;;;;;;;-144.30;65.28;86462.13;5111578;28;20228;-60
2023/12/23 03:19:47;;;;;;;2.93;2.73;;;;;;;-144.30;65.52;86497.94;5111754;28;20223;-59
2023/12/23 03:22:14;;;;;;;2.90;2.60;;;;;;;-144.30;66.10;86509.84;5111540;28;20226;-60
2023/12/23 03:24:42;;;;;;;2.53;2.33;;;;;;;-144.30;66.54;86491.97;5111616;28;20194;-59
2023/12/23 03:27:09;;;;;;;2.50;2.30;;;;;;;-144.30;65.92;86790.25;5111892;28;20198;-61
2023/12/23 03:29:37;;;;;;;3.93;2.30;;;;;;;-144.30;66.22;86513.84;5111673;28;20645;-56
2023/12/23 03:32:05;;;;;;;2.63;2.10;;;;;;;-144.30;65.52;86515.81;5111641;28;20194;-59
2023/12/23 03:34:32;;;;;;;3.50;2.20;;;;;;;-144.30;65.98;86489.97;5111410;28;20241;-55
2023/12/23 03:36:58;;;;;;;2.70;2.40;;;;;;;-144.30;66.04;86519.81;5111661;28;20745;-60
2023/12/23 03:39:25;;;;;;;2.10;1.90;;;;;;;-144.30;66.48;86466.09;5111323;28;20574;-55
2023/12/23 03:41:52;;;;;;;2.30;2.07;;;;;;;-144.30;66.61;86543.66;5111266;28;20230;-55
2023/12/23 03:44:19;;;;;;;5.47;2.07;;;;;;;-144.30;66.27;86509.84;5110593;28;20198;-56
2023/12/23 03:46:47;;;;;;;4.03;2.17;;;;;;;-144.30;66.20;86493.94;5111150;28;20206;-56
2023/12/23 03:49:14;;;;;;;2.30;1.73;;;;;;;-144.30;65.42;86482.03;5111270;28;20583;-60
2023/12/23 03:51:41;;;;;;;2.30;2.10;;;;;;;-144.30;65.20;86458.16;5111147;28;20199;-60
2023/12/23 03:54:08;;;;;;;3.20;2.90;;;;;;;-144.30;65.46;86478.03;5111103;28;20190;-60
2023/12/23 03:56:35;;;;;;;6.47;3.80;;;;;;;-144.30;66.07;86493.94;5110780;28;20584;-59
2023/12/23 03:59:02;;;;;;;4.33;3.93;;;;;;;-144.30;65.96;86489.97;5110921;28;20214;-58
2023/12/23 04:01:29;;;;;;;4.73;3.70;;;;;;;-144.30;65.61;86511.84;5108571;28;20301;-58
2023/12/23 04:03:58;;;;;;;8.60;4.13;;;;;;;-144.30;66.03;86478.03;5111055;28;20197;-59
2023/12/23 04:06:27;;;;;;;6.63;5.93;;;;;;;-144.30;65.69;86480.03;5108694;28;20194;-56
2023/12/23 04:08:53;;;;;;;9.47;6.50;;;;;;;-144.30;65.37;86513.84;5110733;28;20581;-59
2023/12/23 04:11:20;;;;;;;7.43;6.00;;;;;;;-144.30;65.82;86491.97;5110689;28;20248;-57
2023/12/23 04:13:46;;;;;;;8.50;6.33;;;;;;;-144.30;65.63;86505.88;5107363;28;20278;-58
2023/12/23 04:16:13;;;;;;;8.03;6.70;;;;;;;-144.30;65.74;86408.44;5097522;28;20651;-58
2023/12/23 04:18:40;;;;;;;6.60;6.03;;;;;;;-144.30;65.86;86458.16;5103922;28;20191;-59
2023/12/23 04:21:09;;;;;;;8.20;6.63;;;;;;;-144.30;66.16;86501.91;5090535;28;20223;-59
2023/12/23 04:23:36;;;;;;;7.90;5.87;;;;;;;-144.30;65.37;86484.00;5101564;28;20226;-57
2023/12/23 04:26:04;;;;;;;8.47;5.63;;;;;;;-144.30;66.44;86456.16;5107377;28;20194;-59
2023/12/23 04:28:31;;;;;;;7.03;5.10;;;;;;;-144.30;66.32;86487.97;5109502;28;20677;-58
2023/12/23 04:30:58;;;;;;;9.13;5.17;;;;;;;-144.30;66.58;86378.63;5110006;28;20674;-59
2023/12/23 04:33:25;;;;;;;7.27;5.50;;;;;;;-144.30;66.12;86482.03;5109585;28;20576;-58
2023/12/23 04:35:52;;;;;;;6.53;5.03;;;;;;;-144.30;66.37;86497.94;5109825;28;20194;-58
2023/12/23 04:38:20;;;;;;;7.60;4.83;;;;;;;-144.30;66.04;86527.75;5109374;28;20190;-57
2023/12/23 04:40:47;;;;;;;7.27;4.97;;;;;;;-144.30;66.20;86486.00;5109114;28;20210;-56
2023/12/23 04:43:15;;;;;;;6.90;4.93;;;;;;;-144.30;66.61;86487.97;5105475;28;20684;-56
2023/12/23 04:45:42;;;;;;;6.93;5.20;;;;;;;-144.30;66.86;86450.19;5109183;28;20697;-58
2023/12/23 04:48:09;;;;;;;8.20;4.87;;;;;;;-144.30;66.51;86458.16;5109978;28;20203;-59
2023/12/23 04:50:36;;;;;;;9.93;5.73;;;;;;;-144.30;67.16;86525.75;5110031;28;20722;-59
2023/12/23 04:53:03;;;;;;;9.53;6.27;;;;;;;-144.30;67.00;86515.81;5113247;27;20206;-58
2023/12/23 04:55:31;;;;;;;10.10;6.70;;;;;;;-144.30;67.53;86501.91;5117751;27;20195;-59
2023/12/23 04:57:58;;;;;;;10.83;7.27;;;;;;;-144.30;67.23;86517.81;5109002;28;20204;-60
2023/12/23 05:00:25;;;;;;;11.40;7.83;;;;;;;-144.30;66.71;86491.97;5109569;28;20224;-59
2023/12/23 05:02:52;;;;;;;18.00;9.33;;;;;;;-144.30;66.91;86493.94;5110055;28;20191;-60
2023/12/23 05:05:19;;;;;;;15.27;10.23;;;;;;;-144.30;67.40;86478.03;5109511;28;20229;-59
2023/12/23 05:07:46;;;;;;;12.97;9.07;;;;;;;-144.30;68.11;86503.91;5109432;28;20191;-58
2023/12/23 05:10:13;;;;;;;15.87;9.47;;;;;;;-144.30;68.83;86486.00;5108724;28;20240;-55
2023/12/23 05:12:42;;;;;;;13.47;9.47;;;;;;;-144.30;68.26;86517.81;5108253;28;20200;-56
2023/12/23 05:15:09;;;;;;;13.43;8.07;;;;;;;-144.30;67.34;86509.84;5109531;28;20211;-59
2023/12/23 05:17:36;;;;;;;9.73;6.77;;;;;;;-144.30;67.17;86474.06;5109540;28;20194;-58
2023/12/23 05:20:03;;;;;;;9.77;6.83;;;;;;;-144.30;66.73;86482.03;5109640;28;20194;-59
2023/12/23 05:22:30;;;;;;;7.20;5.93;;;;;;;-144.30;67.16;86509.84;5108794;28;20217;-58
2023/12/23 05:24:57;;;;;;;11.30;6.50;;;;;;;-144.30;67.33;86472.06;5109718;28;20198;-56
2023/12/23 05:27:24;;;;;;;7.93;6.53;;;;;;;-144.30;67.58;86493.94;5109435;28;20191;-55
2023/12/23 05:29:55;;;;;;;7.10;6.10;;;;;;;-144.30;67.13;86493.94;5109759;28;20199;-56
2023/12/23 05:32:22;;;;;;;7.73;6.17;;;;;;;-144.30;67.35;86458.16;5109586;28;20721;-55
2023/12/23 05:34:49;;;;;;;8.50;6.33;;;;;;;-144.30;67.82;86531.72;5109614;28;20195;-56
2023/12/23 05:37:16;;;;;;;9.60;6.43;;;;;;;-144.30;67.71;86541.69;5109368;28;20320;-56
2023/12/23 05:39:47;;;;;;;11.10;6.00;;;;;;;-144.30;67.92;86489.97;5109452;28;20191;-55
2023/12/23 05:42:14;;;;;;;9.37;6.50;;;;;;;-144.30;67.36;86503.91;5109335;28;20229;-56
2023/12/23 05:44:41;;;;;;;8.23;6.20;;;;;;;-144.30;67.65;86531.72;5109653;28;20285;-55
2023/12/23 05:47:10;;;;;;;7.57;6.07;;;;;;;-144.30;67.83;86519.81;5109696;28;20198;-55
2023/12/23 05:49:37;;;;;;;6.43;5.80;;;;;;;-144.30;68.28;86501.91;5109338;28;20281;-56
2023/12/23 05:52:04;;;;;;;8.70;6.67;;;;;;;-144.30;67.38;86478.03;5109634;28;20213;-57
2023/12/23 05:54:32;;;;;;;10.43;6.93;;;;;;;-144.30;67.56;86545.66;5109283;28;20198;-57
2023/12/23 05:56:59;;;;;;;13.33;7.37;;;;;;;-144.30;66.90;86501.91;5109432;28;20199;-60
2023/12/23 05:59:26;;;;;;;16.93;9.03;;;;;;;-144.30;67.52;86529.75;5109408;28;20607;-59
2023/12/23 06:01:53;;;;;;;26.40;11.77;;;;;;;-144.30;68.07;86533.72;5109809;28;20305;-58
2023/12/23 06:04:21;;;;;;;23.07;12.63;;;;;;;-144.30;69.03;86537.69;5109012;28;20693;-60
2023/12/23 06:06:48;;;;;;;22.77;11.60;;;;;;;-144.30;68.86;86515.81;5109448;28;20199;-59
2023/12/23 06:09:15;;;;;;;16.67;9.70;;;;;;;-144.30;69.17;86517.81;5113062;28;20195;-60
2023/12/23 06:11:42;;;;;;;14.20;9.20;;;;;;;-144.30;69.96;86533.72;5113360;28;20190;-61
2023/12/23 06:14:09;;;;;;;14.47;8.70;;;;;;;-144.30;70.63;86541.69;5108624;28;20229;-61
2023/12/23 06:16:38;;;;;;;13.23;7.80;;;;;;;-144.30;70.49;86505.88;5112782;28;20255;-60
2023/12/23 06:19:05;;;;;;;17.10;8.23;;;;;;;-144.30;70.35;86551.63;5112754;28;20206;-61
2023/12/23 06:21:34;;;;;;;14.33;7.67;;;;;;;-144.30;69.66;86505.88;5112599;28;20639;-56
2023/12/23 06:24:01;;;;;;;13.17;6.53;;;;;;;-144.30;68.96;86547.66;5113086;27;20217;-57
2023/12/23 06:26:28;;;;;;;12.53;6.97;;;;;;;-144.30;69.00;86478.03;5112366;28;20666;-60
2023/12/23 06:28:55;;;;;;;16.40;7.63;;;;;;;-144.30;68.86;86525.75;5112036;28;20203;-61
2023/12/23 06:31:22;;;;;;;12.50;6.70;;;;;;;-144.30;68.71;86523.78;5112350;28;20233;-57
2023/12/23 06:33:49;;;;;;;15.00;6.90;;;;;;;-144.30;69.33;86458.16;5112656;28;20230;-61
2023/12/23 06:36:16;;;;;;;9.50;6.50;;;;;;;-144.30;68.95;86529.75;5112697;28;20587;-57
2023/12/23 06:38:44;;;;;;;14.47;7.40;;;;;;;-144.30;69.03;86505.88;5112919;28;20213;-55
2023/12/23 06:41:12;;;;;;;13.60;8.20;;;;;;;-144.30;68.72;86505.88;5112728;28;20250;-60
2023/12/23 06:43:39;;;;;;;11.70;7.87;;;;;;;-144.30;69.17;86493.94;5111857;28;20260;-60
2023/12/23 06:46:06;;;;;;;23.97;10.23;;;;;;;-144.30;69.07;86513.84;5111595;28;20206;-60
2023/12/23 06:48:33;;;;;;;33.43;15.67;;;;;;;-144.30;68.38;86509.84;5110734;28;20198;-60
2023/12/23 06:50:59;;;;;;;27.00;13.77;;;;;;;-144.30;68.62;86442.25;5111779;28;20197;-56
2023/12/23 06:53:26;;;;;;;23.97;12.37;;;;;;;-144.30;67.55;86462.13;5112376;28;20194;-56
2023/12/23 06:55:55;;;;;;;19.17;11.77;;;;;;;-144.30;67.72;86489.97;5112303;28;20202;-56
2023/12/23 06:58:23;;;;;;;17.83;11.63;;;;;;;-144.30;68.04;86470.09;5111918;28;20199;-55
2023/12/23 07:00:50;;;;;;;17.90;10.60;;;;;;;-144.30;66.97;86478.03;5111949;28;20259;-56
2023/12/23 07:03:17;;;;;;;18.57;10.87;;;;;;;-144.30;67.08;86442.25;5112174;28;20331;-62
2023/12/23 07:05:44;;;;;;;18.30;11.10;;;;;;;-144.30;66.17;86430.31;5112385;28;20210;-60
2023/12/23 07:08:11;;;;;;;19.93;11.10;;;;;;;-144.30;65.53;86454.19;5112171;28;20590;-56
2023/12/23 07:10:37;;;;;;;16.47;10.77;;;;;;;-144.30;64.89;86454.19;5111875;28;20191;-60
2023/12/23 07:13:06;;;;;;;15.43;10.47;;;;;;;-144.30;64.82;86398.50;5111794;28;20199;-59
2023/12/23 07:15:33;;;;;;;17.90;11.57;;;;;;;-144.30;64.00;86414.41;5111965;28;20198;-62
2023/12/23 07:18:00;;;;;;;20.97;11.70;;;;;;;-144.30;64.23;86386.56;5112470;28;20688;-61
2023/12/23 07:20:27;;;;;;;21.83;10.93;;;;;;;-144.30;63.43;86382.59;5111154;28;20217;-60
2023/12/23 07:22:54;;;;;;;26.23;12.00;;;;;;;-144.30;63.99;86406.44;5112088;28;20214;-61
2023/12/23 07:25:21;;;;;;;23.07;13.80;;;;;;;-144.30;62.52;86388.56;5111880;28;20217;-59
2023/12/23 07:27:48;;;;;;;31.83;19.33;;;;;;;-144.30;62.97;86416.41;5111798;28;20205;-56
2023/12/23 07:30:17;;;;;;;63.67;35.00;;;;;;;-144.30;63.04;86396.50;5111879;28;20201;-56
2023/12/23 07:32:44;;;;;;;57.90;34.77;;;;;;;-144.30;62.88;86372.66;5111672;28;20205;-58
2023/12/23 07:35:10;;;;;;;58.87;32.80;;;;;;;-144.30;63.17;86394.53;5111845;28;20294;-56
2023/12/23 07:37:38;;;;;;;59.50;31.80;;;;;;;-144.30;62.88;86362.72;5111507;28;20191;-58
2023/12/23 07:40:07;;;;;;;54.20;31.20;;;;;;;-144.30;62.93;86366.69;5106717;28;20226;-60
2023/12/23 07:42:34;;;;;;;43.40;27.77;;;;;;;-144.30;63.21;86336.84;5110716;28;20271;-62
2023/12/23 07:45:01;;;;;;;49.27;28.53;;;;;;;-144.30;62.88;86326.91;5111737;28;20814;-59
2023/12/23 07:47:30;;;;;;;48.67;25.43;;;;;;;-144.30;63.00;86342.81;5111397;28;20202;-58
2023/12/23 07:49:57;;;;;;;42.97;22.87;;;;;;;-144.30;63.20;86362.72;5111171;27;20717;-57
2023/12/23 07:52:24;;;;;;;41.83;22.73;;;;;;;-144.30;62.93;86350.78;5110768;28;20205;-56
2023/12/23 07:54:52;;;;;;;42.17;21.00;;;;;;;-144.30;62.79;86311.00;5110200;28;20209;-56
2023/12/23 07:57:19;;;;;;;42.17;24.07;;;;;;;-144.30;61.71;86322.94;5111082;28;20743;-57
2023/12/23 07:59:53;;;;;;;45.97;25.87;;;;;;;-144.30;62.26;86311.00;5111602;28;20683;-56
2023/12/23 08:02:20;;;;;;;48.60;26.57;;;;;;;-144.30;61.41;86301.06;5110931;28;20221;-59
2023/12/23 08:04:49;;;;;;;42.20;27.07;;;;;;;-144.30;61.42;86273.22;5111483;28;20198;-60
2023/12/23 08:07:16;;;;;;;31.83;17.90;;;;;;;-144.30;61.39;86297.09;5110752;28;20194;-56
2023/12/23 08:09:43;;;;;;;27.03;17.07;;;;;;;-144.30;60.63;86301.06;5110034;28;20213;-56
2023/12/23 08:12:10;;;;;;;27.60;14.33;;;;;;;-144.30;60.65;86287.16;5110969;28;20195;-56
2023/12/23 08:14:37;;;;;;;33.37;14.67;;;;;;;-144.30;61.13;86314.97;5110593;28;20593;-60
2023/12/23 08:17:04;;;;;;;33.17;15.67;;;;;;;-144.30;60.85;86275.22;5110836;28;20195;-59
2023/12/23 08:19:31;;;;;;;31.00;15.43;;;;;;;-144.30;60.73;86283.16;5110501;28;20256;-56
2023/12/23 08:22:00;;;;;;;37.30;15.73;;;;;;;-144.30;60.70;86295.09;5110562;28;20232;-58
2023/12/23 08:24:27;;;;;;;33.23;16.47;;;;;;;-144.30;61.45;86299.06;5110106;28;20705;-60
2023/12/23 08:26:55;;;;;;;37.00;16.03;;;;;;;-144.30;61.18;86271.25;5110168;28;20708;-60
2023/12/23 08:29:24;;;;;;;17.93;9.70;;;;;;;-144.30;59.88;86275.22;5110487;28;20198;-57
2023/12/23 08:31:51;;;;;;;18.47;11.27;;;;;;;-144.30;59.74;86299.06;5110185;28;20193;-60
2023/12/23 08:34:18;;;;;;;40.63;12.73;;;;;;;-144.30;59.71;86239.44;5110340;28;20226;-57
2023/12/23 08:36:45;;;;;;;24.10;11.90;;;;;;;-144.30;59.37;86269.25;5110675;28;20195;-57
2023/12/23 08:39:13;;;;;;;21.37;12.03;;;;;;;-144.30;60.09;86247.38;5110381;28;20195;-57
2023/12/23 08:41:40;;;;;;;26.07;12.60;;;;;;;-144.30;60.56;86213.56;5110002;28;20235;-56
2023/12/23 08:44:08;;;;;;;24.93;13.40;;;;;;;-144.30;60.62;86225.50;5110419;28;20201;-55
2023/12/23 08:46:34;;;;;;;23.97;12.63;;;;;;;-144.30;59.20;86199.66;5110243;28;20202;-57
2023/12/23 08:49:01;;;;;;;26.97;11.90;;;;;;;-144.30;59.50;86151.94;5110204;28;20655;-57
2023/12/23 08:51:31;;;;;;;22.23;12.87;;;;;;;-144.30;58.54;86191.69;5110524;28;20197;-59
2023/12/23 08:53:58;;;;;;;21.23;12.27;;;;;;;-144.30;57.86;86209.59;5110504;28;20290;-60
2023/12/23 08:56:26;;;;;;;30.20;13.23;;;;;;;-144.30;57.82;86223.50;5109668;28;20194;-60
2023/12/23 08:58:53;;;;;;;21.93;12.20;;;;;;;-144.30;58.93;86362.72;5108364;28;20205;-60
2023/12/23 09:01:20;;;;;;;22.07;12.30;;;;;;;-144.30;58.11;86169.81;5107151;28;20587;-61
2023/12/23 09:03:47;;;;;;;32.83;14.07;;;;;;;-144.30;58.27;86143.97;5108444;28;20190;-58
2023/12/23 09:06:14;;;;;;;22.47;12.73;;;;;;;-144.30;56.33;86126.09;5108963;28;20204;-57
2023/12/23 09:08:41;;;;;;;19.83;10.33;;;;;;;-144.30;55.31;86171.81;5108677;28;20202;-58
2023/12/23 09:11:08;;;;;;;18.23;9.87;;;;;;;-144.30;54.94;86096.25;5089561;28;20199;-59
2023/12/23 09:13:37;;;;;;;23.40;11.73;;;;;;;-144.30;54.98;86128.06;5098444;28;20203;-56
2023/12/23 09:16:05;;;;;;;20.47;11.20;;;;;;;-144.30;55.06;86128.06;5109400;28;20194;-59
2023/12/23 09:18:32;;;;;;;19.10;10.70;;;;;;;-144.30;55.20;86108.19;5108577;28;20198;-60
2023/12/23 09:20:59;;;;;;;17.70;8.33;;;;;;;-144.30;54.76;86128.06;5109739;28;20202;-59
2023/12/23 09:23:26;;;;;;;16.47;7.63;;;;;;;-144.30;54.55;86108.19;5108986;28;20313;-58
2023/12/23 09:25:53;;;;;;;15.43;7.37;;;;;;;-144.30;53.61;86116.16;5110046;28;20732;-57
2023/12/23 09:28:20;;;;;;;12.33;6.80;;;;;;;-144.30;53.75;86132.06;5110028;28;20720;-56
2023/12/23 09:30:48;;;;;;;9.97;5.73;;;;;;;-144.30;53.76;86100.25;5110031;28;20195;-59
2023/12/23 09:33:19;;;;;;;8.77;5.70;;;;;;;-144.30;53.17;86056.50;5109188;28;20190;-60
2023/12/23 09:35:46;;;;;;;9.93;4.87;;;;;;;-144.30;52.86;85994.84;5109620;28;20205;-56
2023/12/23 09:38:13;;;;;;;13.53;5.67;;;;;;;-144.30;52.97;85984.91;5109795;28;20198;-56
2023/12/23 09:40:41;;;;;;;8.13;5.97;;;;;;;-144.30;52.88;86006.78;5109401;28;20274;-55
2023/12/23 09:43:09;;;;;;;13.30;5.77;;;;;;;-144.30;52.78;85992.88;5111623;28;20309;-60
2023/12/23 09:45:39;;;;;;;11.20;5.57;;;;;;;-144.30;52.49;86020.69;5113186;28;20690;-60
2023/12/23 09:48:08;;;;;;;15.53;5.87;;;;;;;-144.30;52.66;85990.88;5113794;27;20286;-60
2023/12/23 09:50:35;;;;;;;9.90;5.80;;;;;;;-144.30;52.57;86000.81;5113311;27;20195;-60
2023/12/23 09:53:06;;;;;;;8.37;7.10;;;;;;;-144.30;52.58;85891.47;5113471;28;20197;-56
2023/12/23 09:55:34;;;;;;;10.20;6.97;;;;;;;-144.30;52.77;85949.13;5113097;28;20255;-56
2023/12/23 09:58:01;;;;;;;10.57;6.50;;;;;;;-144.30;52.60;85941.16;5111255;28;20206;-57
2023/12/23 10:00:28;;;;;;;10.87;5.93;;;;;;;-144.30;52.35;85943.16;5113635;28;20202;-58
2023/12/23 10:02:56;;;;;;;9.57;5.83;;;;;;;-144.30;52.39;85909.34;5113912;28;20224;-59
2023/12/23 10:05:27;;;;;;;12.30;6.70;;;;;;;-144.30;52.37;85935.22;5113878;28;20191;-57
2023/12/23 10:07:58;;;;;;;11.30;5.97;;;;;;;-144.30;52.73;85857.66;5113668;28;20194;-56
2023/12/23 10:10:32;;;;;;;9.17;6.13;;;;;;;-144.30;52.56;85909.34;5113842;28;20209;-57
2023/12/23 10:12:59;;;;;;;10.83;5.33;;;;;;;-144.30;53.77;85939.19;5113804;28;20202;-56
2023/12/23 10:15:26;;;;;;;12.63;2.27;;;;;;;-144.30;53.89;85879.53;5113004;28;20666;-58
2023/12/23 10:17:53;;;;;;;8.23;1.77;;;;;;;-144.30;53.89;85891.47;5112984;28;20195;-55
2023/12/23 10:20:20;;;;;;;4.63;2.27;;;;;;;-144.30;54.92;85903.41;5112820;28;20194;-52
2023/12/23 10:22:49;;;;;;;4.50;1.97;;;;;;;-144.30;55.47;85897.44;5112355;28;20225;-59
2023/12/23 10:25:16;;;;;;;16.30;2.00;;;;;;;-144.30;55.66;85897.44;5113115;28;20198;-60
2023/12/23 10:27:43;;;;;;;5.77;2.17;;;;;;;-144.30;56.36;85907.38;5112721;28;20251;-58
2023/12/23 10:30:11;;;;;;;9.70;2.50;;;;;;;-144.30;57.10;85963.03;5113122;28;20286;-57
2023/12/23 10:32:40;;;;;;;2.17;1.90;;;;;;;-144.30;57.65;85927.25;5112927;28;20201;-61
2023/12/23 10:35:08;;;;;;;3.10;2.33;;;;;;;-144.30;58.18;85909.34;5113052;28;20199;-59
2023/12/23 10:37:36;;;;;;;4.13;2.73;;;;;;;-144.30;58.50;85923.28;5112226;28;20243;-62
2023/12/23 10:40:11;;;;;;;3.87;2.23;;;;;;;-144.30;58.93;85967.03;5112932;28;20584;-62
2023/12/23 10:42:39;;;;;;;5.27;1.93;;;;;;;-144.30;60.16;85947.13;5112429;28;20230;-63
2023/12/23 10:45:08;;;;;;;3.83;1.90;;;;;;;-144.30;61.06;85980.94;5112667;28;20195;-60
2023/12/23 10:47:35;;;;;;;3.57;1.70;;;;;;;-144.30;61.85;85869.59;5112339;28;20204;-60
2023/12/23 10:50:04;;;;;;;3.80;1.60;;;;;;;-144.30;63.36;86000.81;5112602;28;20198;-61
2023/12/23 10:52:32;;;;;;;1.47;1.37;;;;;;;-144.30;63.94;85980.94;5112425;28;20283;-61
2023/12/23 10:55:00;;;;;;;1.40;1.30;;;;;;;-144.30;64.82;86032.63;5107978;28;20642;-60
2023/12/23 10:57:29;;;;;;;1.50;1.40;;;;;;;-144.30;64.73;86036.59;5109104;28;20201;-59
2023/12/23 10:59:56;;;;;;;2.67;1.33;;;;;;;-144.30;64.56;86020.69;5109482;28;20213;-60
2023/12/23 11:02:27;;;;;;;1.77;1.63;;;;;;;-144.30;64.62;86034.63;5106915;28;20366;-60
2023/12/23 11:04:56;;;;;;;2.17;1.60;;;;;;;-144.30;64.60;86032.63;5112034;28;20194;-60
2023/12/23 11:07:28;;;;;;;1.77;1.67;;;;;;;-144.30;64.37;86016.72;5111872;28;20203;-61
2023/12/23 11:10:00;;;;;;;8.03;4.20;;;;;;;-144.30;63.82;86072.41;5112015;28;20256;-61
2023/12/23 11:12:29;;;;;;;1.67;1.57;;;;;;;-144.30;64.41;86100.25;5124033;27;20210;-61